sensor_id;sensor_type;location;lat;lon;timestamp;temperature;humidity
11908;DHT22;6014;47.690;9.130;2023-07-31T00:48:15;14.40;99.90
11908;DHT22;6014;47.690;9.130;2023-07-31T00:50:43;13.50;99.90
11908;DHT22;6014;47.690;9.130;2023-07-31T00:53:13;13.40;99.90
11908;DHT22;6014;47.690;9.130;2023-07-31T00:55:41;13.40;99.90
11908;DHT22;6014;47.690;9.130;2023-07-31T00:58:11;13.30;99.90
11908;DHT22;6014;47.690;9.130;2023-07-31T01:00:39;13.30;99.90
11908;DHT22;6014;47.690;9.130;2023-07-31T01:03:08;13.40;99.90
11908;DHT22;6014;47.690;9.130;2023-07-31T01:05:40;13.30;99.90
11908;DHT22;6014;47.690;9.130;2023-07-31T01:08:18;13.20;99.90
11908;DHT22;6014;47.690;9.130;2023-07-31T01:10:52;13.30;99.90
11908;DHT22;6014;47.690;9.130;2023-07-31T01:13:23;13.20;99.90
11908;DHT22;6014;47.690;9.130;2023-07-31T01:15:51;13.20;99.90
11908;DHT22;6014;47.690;9.130;2023-07-31T01:18:19;13.20;99.90
11908;DHT22;6014;47.690;9.130;2023-07-31T01:20:54;13.20;99.90
11908;DHT22;6014;47.690;9.130;2023-07-31T01:23:37;13.20;99.90
11908;DHT22;6014;47.690;9.130;2023-07-31T01:26:13;13.20;99.90
11908;DHT22;6014;47.690;9.130;2023-07-31T01:28:52;13.10;99.90
11908;DHT22;6014;47.690;9.130;2023-07-31T01:31:24;13.20;99.90
11908;DHT22;6014;47.690;9.130;2023-07-31T01:33:53;13.20;99.90
11908;DHT22;6014;47.690;9.130;2023-07-31T01:36:23;13.20;99.90
11908;DHT22;6014;47.690;9.130;2023-07-31T01:38:51;13.20;99.90
11908;DHT22;6014;47.690;9.130;2023-07-31T01:41:20;13.20;99.90
11908;DHT22;6014;47.690;9.130;2023-07-31T01:43:48;13.20;99.90
11908;DHT22;6014;47.690;9.130;2023-07-31T01:46:17;13.10;99.90
11908;DHT22;6014;47.690;9.130;2023-07-31T01:48:45;13.10;99.90
11908;DHT22;6014;47.690;9.130;2023-07-31T01:51:13;13.10;99.90
11908;DHT22;6014;47.690;9.130;2023-07-31T01:53:41;13.20;99.90
11908;DHT22;6014;47.690;9.130;2023-07-31T01:56:11;13.20;99.90
11908;DHT22;6014;47.690;9.130;2023-07-31T01:58:41;13.20;99.90
11908;DHT22;6014;47.690;9.130;2023-07-31T02:01:09;13.20;99.90
11908;DHT22;6014;47.690;9.130;2023-07-31T02:03:37;13.20;99.90
11908;DHT22;6014;47.690;9.130;2023-07-31T02:06:05;13.20;99.90
11908;DHT22;6014;47.690;9.130;2023-07-31T02:08:33;13.20;99.90
11908;DHT22;6014;47.690;9.130;2023-07-31T02:11:01;13.20;99.90
11908;DHT22;6014;47.690;9.130;2023-07-31T02:13:29;13.30;99.90
11908;DHT22;6014;47.690;9.130;2023-07-31T02:15:59;13.30;99.90
11908;DHT22;6014;47.690;9.130;2023-07-31T02:18:33;13.30;99.90
11908;DHT22;6014;47.690;9.130;2023-07-31T02:21:01;13.40;99.90
11908;DHT22;6014;47.690;9.130;2023-07-31T02:23:29;13.40;99.90
11908;DHT22;6014;47.690;9.130;2023-07-31T02:25:57;13.40;99.90
11908;DHT22;6014;47.690;9.130;2023-07-31T02:28:25;13.40;99.90
11908;DHT22;6014;47.690;9.130;2023-07-31T02:30:54;13.40;99.90
11908;DHT22;6014;47.690;9.130;2023-07-31T02:33:23;13.40;99.90
11908;DHT22;6014;47.690;9.130;2023-07-31T02:35:51;13.30;99.90
11908;DHT22;6014;47.690;9.130;2023-07-31T02:38:19;13.30;99.90
11908;DHT22;6014;47.690;9.130;2023-07-31T02:40:47;13.20;99.90
11908;DHT22;6014;47.690;9.130;2023-07-31T02:43:15;13.20;99.90
11908;DHT22;6014;47.690;9.130;2023-07-31T02:45:43;13.20;99.90
11908;DHT22;6014;47.690;9.130;2023-07-31T02:48:12;13.30;99.90
11908;DHT22;6014;47.690;9.130;2023-07-31T02:50:41;13.30;99.90
11908;DHT22;6014;47.690;9.130;2023-07-31T02:53:09;13.30;99.90
11908;DHT22;6014;47.690;9.130;2023-07-31T02:55:37;13.30;99.90
11908;DHT22;6014;47.690;9.130;2023-07-31T02:58:05;13.30;99.90
11908;DHT22;6014;47.690;9.130;2023-07-31T03:00:33;13.00;99.90
11908;DHT22;6014;47.690;9.130;2023-07-31T03:03:02;12.90;99.90
11908;DHT22;6014;47.690;9.130;2023-07-31T03:05:30;12.90;99.90
11908;DHT22;6014;47.690;9.130;2023-07-31T03:07:59;13.00;99.90
11908;DHT22;6014;47.690;9.130;2023-07-31T03:10:27;13.00;99.90
11908;DHT22;6014;47.690;9.130;2023-07-31T03:12:55;12.90;99.90
11908;DHT22;6014;47.690;9.130;2023-07-31T03:15:23;13.00;99.90
11908;DHT22;6014;47.690;9.130;2023-07-31T03:17:51;13.00;99.90
11908;DHT22;6014;47.690;9.130;2023-07-31T03:20:19;13.00;99.90
11908;DHT22;6014;47.690;9.130;2023-07-31T03:22:54;13.10;99.90
11908;DHT22;6014;47.690;9.130;2023-07-31T03:25:24;13.10;99.90
11908;DHT22;6014;47.690;9.130;2023-07-31T03:27:52;13.20;99.90
11908;DHT22;6014;47.690;9.130;2023-07-31T03:30:20;13.10;99.90
11908;DHT22;6014;47.690;9.130;2023-07-31T03:32:48;13.20;99.90
11908;DHT22;6014;47.690;9.130;2023-07-31T03:35:16;13.20;99.90
11908;DHT22;6014;47.690;9.130;2023-07-31T03:37:44;13.20;99.90
11908;DHT22;6014;47.690;9.130;2023-07-31T03:40:12;13.20;99.90
11908;DHT22;6014;47.690;9.130;2023-07-31T03:42:41;13.20;99.90
11908;DHT22;6014;47.690;9.130;2023-07-31T03:45:10;13.20;99.90
11908;DHT22;6014;47.690;9.130;2023-07-31T03:47:38;13.30;99.90
11908;DHT22;6014;47.690;9.130;2023-07-31T03:50:07;13.30;99.90
11908;DHT22;6014;47.690;9.130;2023-07-31T03:52:35;13.30;99.90
11908;DHT22;6014;47.690;9.130;2023-07-31T03:55:03;13.30;99.90
11908;DHT22;6014;47.690;9.130;2023-07-31T03:57:46;13.30;99.90
11908;DHT22;6014;47.690;9.130;2023-07-31T04:00:14;13.20;99.90
11908;DHT22;6014;47.690;9.130;2023-07-31T04:02:42;13.30;99.90
11908;DHT22;6014;47.690;9.130;2023-07-31T04:05:15;13.30;99.90
11908;DHT22;6014;47.690;9.130;2023-07-31T04:07:43;13.40;99.90
11908;DHT22;6014;47.690;9.130;2023-07-31T04:10:12;13.50;99.90
11908;DHT22;6014;47.690;9.130;2023-07-31T04:12:40;13.60;99.90
11908;DHT22;6014;47.690;9.130;2023-07-31T04:15:10;13.70;99.90
11908;DHT22;6014;47.690;9.130;2023-07-31T04:17:38;13.80;99.90
11908;DHT22;6014;47.690;9.130;2023-07-31T04:20:06;13.90;99.90
11908;DHT22;6014;47.690;9.130;2023-07-31T04:22:36;14.00;99.90
11908;DHT22;6014;47.690;9.130;2023-07-31T04:25:04;14.10;99.90
11908;DHT22;6014;47.690;9.130;2023-07-31T04:27:32;14.30;99.90
11908;DHT22;6014;47.690;9.130;2023-07-31T04:30:00;14.40;99.90
11908;DHT22;6014;47.690;9.130;2023-07-31T04:32:30;14.50;99.90
11908;DHT22;6014;47.690;9.130;2023-07-31T04:34:59;14.70;99.90
11908;DHT22;6014;47.690;9.130;2023-07-31T04:37:27;14.70;99.90
11908;DHT22;6014;47.690;9.130;2023-07-31T04:39:55;14.80;99.90
11908;DHT22;6014;47.690;9.130;2023-07-31T04:42:23;14.90;99.90
11908;DHT22;6014;47.690;9.130;2023-07-31T04:44:51;14.90;99.90
11908;DHT22;6014;47.690;9.130;2023-07-31T04:47:29;15.00;99.90
11908;DHT22;6014;47.690;9.130;2023-07-31T04:49:57;14.90;99.90
11908;DHT22;6014;47.690;9.130;2023-07-31T04:52:25;15.10;99.90
11908;DHT22;6014;47.690;9.130;2023-07-31T04:54:53;15.30;99.90
11908;DHT22;6014;47.690;9.130;2023-07-31T04:57:28;15.20;99.90
11908;DHT22;6014;47.690;9.130;2023-07-31T04:59:56;15.40;99.90
11908;DHT22;6014;47.690;9.130;2023-07-31T05:02:24;15.60;99.90
11908;DHT22;6014;47.690;9.130;2023-07-31T05:04:53;15.80;99.90
11908;DHT22;6014;47.690;9.130;2023-07-31T05:07:21;15.90;99.90
11908;DHT22;6014;47.690;9.130;2023-07-31T05:09:49;15.80;99.90
11908;DHT22;6014;47.690;9.130;2023-07-31T05:12:17;15.80;99.90
11908;DHT22;6014;47.690;9.130;2023-07-31T05:14:45;15.90;99.90
11908;DHT22;6014;47.690;9.130;2023-07-31T05:17:14;16.10;99.90
11908;DHT22;6014;47.690;9.130;2023-07-31T05:19:42;16.30;99.90
11908;DHT22;6014;47.690;9.130;2023-07-31T05:22:12;16.60;99.90
11908;DHT22;6014;47.690;9.130;2023-07-31T05:24:40;16.90;99.90
11908;DHT22;6014;47.690;9.130;2023-07-31T05:27:09;17.30;99.90
11908;DHT22;6014;47.690;9.130;2023-07-31T05:29:40;17.20;99.90
11908;DHT22;6014;47.690;9.130;2023-07-31T05:32:09;17.30;99.90
11908;DHT22;6014;47.690;9.130;2023-07-31T05:34:37;17.30;99.90
11908;DHT22;6014;47.690;9.130;2023-07-31T05:37:05;17.30;99.90
11908;DHT22;6014;47.690;9.130;2023-07-31T05:39:35;17.20;99.90
11908;DHT22;6014;47.690;9.130;2023-07-31T05:42:03;17.40;99.90
11908;DHT22;6014;47.690;9.130;2023-07-31T05:44:31;17.40;99.90
11908;DHT22;6014;47.690;9.130;2023-07-31T05:46:59;17.40;99.90
11908;DHT22;6014;47.690;9.130;2023-07-31T05:49:27;17.20;99.90
11908;DHT22;6014;47.690;9.130;2023-07-31T05:51:55;17.10;99.90
11908;DHT22;6014;47.690;9.130;2023-07-31T05:54:25;17.10;99.90
11908;DHT22;6014;47.690;9.130;2023-07-31T05:56:57;17.10;99.90
11908;DHT22;6014;47.690;9.130;2023-07-31T05:59:27;17.20;99.90
11908;DHT22;6014;47.690;9.130;2023-07-31T06:01:55;17.30;99.90
11908;DHT22;6014;47.690;9.130;2023-07-31T06:04:23;17.20;99.90
11908;DHT22;6014;47.690;9.130;2023-07-31T06:06:52;17.30;99.90
11908;DHT22;6014;47.690;9.130;2023-07-31T06:09:20;17.30;99.90
11908;DHT22;6014;47.690;9.130;2023-07-31T06:11:48;17.20;99.90
11908;DHT22;6014;47.690;9.130;2023-07-31T06:14:18;17.10;99.90
11908;DHT22;6014;47.690;9.130;2023-07-31T06:16:46;17.10;99.90
11908;DHT22;6014;47.690;9.130;2023-07-31T06:19:14;17.00;99.90
11908;DHT22;6014;47.690;9.130;2023-07-31T06:21:42;17.10;99.90
11908;DHT22;6014;47.690;9.130;2023-07-31T06:24:10;17.30;99.90
11908;DHT22;6014;47.690;9.130;2023-07-31T06:26:44;17.40;99.90
11908;DHT22;6014;47.690;9.130;2023-07-31T06:29:12;17.50;99.90
11908;DHT22;6014;47.690;9.130;2023-07-31T06:31:42;17.50;99.90
11908;DHT22;6014;47.690;9.130;2023-07-31T06:34:10;17.40;99.90
11908;DHT22;6014;47.690;9.130;2023-07-31T06:36:38;17.40;99.90
11908;DHT22;6014;47.690;9.130;2023-07-31T06:39:07;17.50;99.90
11908;DHT22;6014;47.690;9.130;2023-07-31T06:41:41;17.60;99.90
11908;DHT22;6014;47.690;9.130;2023-07-31T06:44:09;17.70;99.90
11908;DHT22;6014;47.690;9.130;2023-07-31T06:46:37;17.90;99.90
11908;DHT22;6014;47.690;9.130;2023-07-31T06:49:21;17.70;99.90
11908;DHT22;6014;47.690;9.130;2023-07-31T06:51:51;17.50;99.90
11908;DHT22;6014;47.690;9.130;2023-07-31T06:54:19;17.50;99.90
11908;DHT22;6014;47.690;9.130;2023-07-31T06:56:47;17.50;99.90
11908;DHT22;6014;47.690;9.130;2023-07-31T06:59:19;17.50;99.90
11908;DHT22;6014;47.690;9.130;2023-07-31T07:01:47;17.90;99.90
11908;DHT22;6014;47.690;9.130;2023-07-31T07:04:15;18.00;99.90
11908;DHT22;6014;47.690;9.130;2023-07-31T07:06:44;18.00;99.90
11908;DHT22;6014;47.690;9.130;2023-07-31T07:09:19;18.20;99.90
11908;DHT22;6014;47.690;9.130;2023-07-31T07:11:47;18.50;99.90
11908;DHT22;6014;47.690;9.130;2023-07-31T07:14:15;18.60;99.90
11908;DHT22;6014;47.690;9.130;2023-07-31T07:16:43;18.90;99.90
11908;DHT22;6014;47.690;9.130;2023-07-31T07:19:11;19.60;99.90
11908;DHT22;6014;47.690;9.130;2023-07-31T07:21:39;19.80;99.90
11908;DHT22;6014;47.690;9.130;2023-07-31T07:24:09;20.10;99.90
11908;DHT22;6014;47.690;9.130;2023-07-31T07:26:37;19.70;99.90
11908;DHT22;6014;47.690;9.130;2023-07-31T07:29:06;19.50;99.90
11908;DHT22;6014;47.690;9.130;2023-07-31T07:31:34;19.40;99.90
11908;DHT22;6014;47.690;9.130;2023-07-31T07:34:03;19.20;99.90
11908;DHT22;6014;47.690;9.130;2023-07-31T07:36:31;19.10;99.90
11908;DHT22;6014;47.690;9.130;2023-07-31T07:39:00;19.20;99.90
11908;DHT22;6014;47.690;9.130;2023-07-31T07:41:29;19.30;99.90
11908;DHT22;6014;47.690;9.130;2023-07-31T07:43:57;19.50;99.90
11908;DHT22;6014;47.690;9.130;2023-07-31T07:46:25;19.80;99.50
11908;DHT22;6014;47.690;9.130;2023-07-31T07:48:57;19.60;98.90
11908;DHT22;6014;47.690;9.130;2023-07-31T07:51:25;19.40;99.90
11908;DHT22;6014;47.690;9.130;2023-07-31T07:53:54;19.50;99.40
11908;DHT22;6014;47.690;9.130;2023-07-31T07:56:22;19.40;99.40
11908;DHT22;6014;47.690;9.130;2023-07-31T07:58:54;19.20;99.40
11908;DHT22;6014;47.690;9.130;2023-07-31T08:01:22;19.30;98.80
11908;DHT22;6014;47.690;9.130;2023-07-31T08:03:50;19.50;98.60
11908;DHT22;6014;47.690;9.130;2023-07-31T08:06:18;19.60;98.20
11908;DHT22;6014;47.690;9.130;2023-07-31T08:08:47;19.50;98.40
11908;DHT22;6014;47.690;9.130;2023-07-31T08:11:15;19.60;99.00
11908;DHT22;6014;47.690;9.130;2023-07-31T08:13:43;19.90;98.30
11908;DHT22;6014;47.690;9.130;2023-07-31T08:16:12;20.40;97.90
11908;DHT22;6014;47.690;9.130;2023-07-31T08:18:40;20.50;97.80
11908;DHT22;6014;47.690;9.130;2023-07-31T08:21:09;20.50;98.00
11908;DHT22;6014;47.690;9.130;2023-07-31T08:23:37;21.10;96.30
11908;DHT22;6014;47.690;9.130;2023-07-31T08:26:05;21.40;95.80
11908;DHT22;6014;47.690;9.130;2023-07-31T08:28:33;21.10;94.60
11908;DHT22;6014;47.690;9.130;2023-07-31T08:31:03;21.60;94.80
11908;DHT22;6014;47.690;9.130;2023-07-31T08:33:32;21.70;94.50
11908;DHT22;6014;47.690;9.130;2023-07-31T08:36:00;21.80;93.70
11908;DHT22;6014;47.690;9.130;2023-07-31T08:38:29;22.10;93.70
11908;DHT22;6014;47.690;9.130;2023-07-31T08:41:03;22.60;92.90
11908;DHT22;6014;47.690;9.130;2023-07-31T08:43:32;22.50;92.80
11908;DHT22;6014;47.690;9.130;2023-07-31T08:46:02;22.40;92.40
11908;DHT22;6014;47.690;9.130;2023-07-31T08:48:37;22.10;91.70
11908;DHT22;6014;47.690;9.130;2023-07-31T08:51:06;22.30;92.00
11908;DHT22;6014;47.690;9.130;2023-07-31T08:53:34;22.80;92.00
11908;DHT22;6014;47.690;9.130;2023-07-31T08:56:02;23.40;90.00
11908;DHT22;6014;47.690;9.130;2023-07-31T08:58:33;23.00;90.00
11908;DHT22;6014;47.690;9.130;2023-07-31T09:01:04;22.80;88.80
11908;DHT22;6014;47.690;9.130;2023-07-31T09:03:43;22.60;88.90
11908;DHT22;6014;47.690;9.130;2023-07-31T09:06:13;23.10;87.10
11908;DHT22;6014;47.690;9.130;2023-07-31T09:08:42;22.80;84.90
11908;DHT22;6014;47.690;9.130;2023-07-31T09:11:10;22.80;84.40
11908;DHT22;6014;47.690;9.130;2023-07-31T09:13:40;23.00;85.10
11908;DHT22;6014;47.690;9.130;2023-07-31T09:16:09;23.00;84.30
11908;DHT22;6014;47.690;9.130;2023-07-31T09:18:53;23.10;81.00
11908;DHT22;6014;47.690;9.130;2023-07-31T09:21:24;22.60;81.80
11908;DHT22;6014;47.690;9.130;2023-07-31T09:23:54;23.30;82.80
11908;DHT22;6014;47.690;9.130;2023-07-31T09:26:30;23.60;81.30
11908;DHT22;6014;47.690;9.130;2023-07-31T09:28:58;23.50;79.20
11908;DHT22;6014;47.690;9.130;2023-07-31T09:31:39;23.40;79.90
11908;DHT22;6014;47.690;9.130;2023-07-31T09:34:10;23.50;80.30
11908;DHT22;6014;47.690;9.130;2023-07-31T09:36:41;23.50;80.60
11908;DHT22;6014;47.690;9.130;2023-07-31T09:39:11;23.00;79.70
11908;DHT22;6014;47.690;9.130;2023-07-31T09:41:41;23.00;79.50
11908;DHT22;6014;47.690;9.130;2023-07-31T09:44:09;23.10;78.80
11908;DHT22;6014;47.690;9.130;2023-07-31T09:46:51;23.00;78.30
11908;DHT22;6014;47.690;9.130;2023-07-31T09:49:20;22.80;80.30
11908;DHT22;6014;47.690;9.130;2023-07-31T09:51:48;23.30;78.60
11908;DHT22;6014;47.690;9.130;2023-07-31T09:54:16;23.20;77.30
11908;DHT22;6014;47.690;9.130;2023-07-31T09:56:46;23.40;78.30
11908;DHT22;6014;47.690;9.130;2023-07-31T09:59:16;23.70;77.40
11908;DHT22;6014;47.690;9.130;2023-07-31T10:01:49;23.40;77.10
11908;DHT22;6014;47.690;9.130;2023-07-31T10:04:17;23.30;76.40
11908;DHT22;6014;47.690;9.130;2023-07-31T10:07:02;23.60;73.70
11908;DHT22;6014;47.690;9.130;2023-07-31T10:09:33;23.90;74.50
11908;DHT22;6014;47.690;9.130;2023-07-31T10:12:14;23.80;76.00
11908;DHT22;6014;47.690;9.130;2023-07-31T10:14:45;24.00;74.50
11908;DHT22;6014;47.690;9.130;2023-07-31T10:17:13;24.10;74.80
11908;DHT22;6014;47.690;9.130;2023-07-31T10:19:42;24.30;75.30
11908;DHT22;6014;47.690;9.130;2023-07-31T10:22:13;24.10;74.00
11908;DHT22;6014;47.690;9.130;2023-07-31T10:24:55;24.10;72.80
11908;DHT22;6014;47.690;9.130;2023-07-31T10:27:25;24.40;73.10
11908;DHT22;6014;47.690;9.130;2023-07-31T10:29:55;24.80;72.50
11908;DHT22;6014;47.690;9.130;2023-07-31T10:32:25;24.70;70.10
11908;DHT22;6014;47.690;9.130;2023-07-31T10:34:54;24.70;68.00
11908;DHT22;6014;47.690;9.130;2023-07-31T10:37:26;24.80;69.70
11908;DHT22;6014;47.690;9.130;2023-07-31T10:39:56;24.10;70.40
11908;DHT22;6014;47.690;9.130;2023-07-31T10:42:29;24.20;72.50
11908;DHT22;6014;47.690;9.130;2023-07-31T10:44:58;24.40;68.60
11908;DHT22;6014;47.690;9.130;2023-07-31T10:47:27;24.70;69.10
11908;DHT22;6014;47.690;9.130;2023-07-31T10:50:12;25.10;67.70
11908;DHT22;6014;47.690;9.130;2023-07-31T10:52:45;24.50;66.60
11908;DHT22;6014;47.690;9.130;2023-07-31T10:55:30;25.10;66.50
11908;DHT22;6014;47.690;9.130;2023-07-31T10:58:05;25.20;64.20
11908;DHT22;6014;47.690;9.130;2023-07-31T11:00:37;24.60;66.10
11908;DHT22;6014;47.690;9.130;2023-07-31T11:03:09;24.80;64.50
11908;DHT22;6014;47.690;9.130;2023-07-31T11:05:48;24.80;64.80
11908;DHT22;6014;47.690;9.130;2023-07-31T11:08:51;25.40;65.10
11908;DHT22;6014;47.690;9.130;2023-07-31T11:11:19;25.90;62.80
11908;DHT22;6014;47.690;9.130;2023-07-31T11:14:04;25.90;62.60
11908;DHT22;6014;47.690;9.130;2023-07-31T11:16:32;25.30;63.00
11908;DHT22;6014;47.690;9.130;2023-07-31T11:19:00;25.60;64.00
11908;DHT22;6014;47.690;9.130;2023-07-31T11:21:29;25.60;64.00
11908;DHT22;6014;47.690;9.130;2023-07-31T11:23:58;25.90;63.60
11908;DHT22;6014;47.690;9.130;2023-07-31T11:26:27;25.60;59.20
11908;DHT22;6014;47.690;9.130;2023-07-31T11:29:00;26.20;58.20
11908;DHT22;6014;47.690;9.130;2023-07-31T11:31:28;26.00;57.40
11908;DHT22;6014;47.690;9.130;2023-07-31T11:34:07;26.50;56.60
11908;DHT22;6014;47.690;9.130;2023-07-31T11:36:35;26.30;57.90
11908;DHT22;6014;47.690;9.130;2023-07-31T11:39:11;26.50;58.70
11908;DHT22;6014;47.690;9.130;2023-07-31T11:41:41;26.40;59.40
11908;DHT22;6014;47.690;9.130;2023-07-31T11:44:09;26.60;58.10
11908;DHT22;6014;47.690;9.130;2023-07-31T11:47:00;26.50;59.60
11908;DHT22;6014;47.690;9.130;2023-07-31T11:49:29;25.80;57.70
11908;DHT22;6014;47.690;9.130;2023-07-31T11:52:08;25.20;59.50
11908;DHT22;6014;47.690;9.130;2023-07-31T11:54:37;25.60;60.70
11908;DHT22;6014;47.690;9.130;2023-07-31T11:57:07;26.20;56.70
11908;DHT22;6014;47.690;9.130;2023-07-31T11:59:37;26.00;57.80
11908;DHT22;6014;47.690;9.130;2023-07-31T12:02:07;25.70;58.00
11908;DHT22;6014;47.690;9.130;2023-07-31T12:04:37;26.20;59.60
11908;DHT22;6014;47.690;9.130;2023-07-31T12:07:06;25.70;56.10
11908;DHT22;6014;47.690;9.130;2023-07-31T12:09:38;25.90;56.10
11908;DHT22;6014;47.690;9.130;2023-07-31T12:12:08;26.30;53.50
11908;DHT22;6014;47.690;9.130;2023-07-31T12:14:41;26.50;52.90
11908;DHT22;6014;47.690;9.130;2023-07-31T12:17:10;26.80;52.80
11908;DHT22;6014;47.690;9.130;2023-07-31T12:19:38;26.70;50.80
11908;DHT22;6014;47.690;9.130;2023-07-31T12:22:11;26.80;53.10
11908;DHT22;6014;47.690;9.130;2023-07-31T12:24:42;27.00;52.20
11908;DHT22;6014;47.690;9.130;2023-07-31T12:27:11;26.80;53.00
11908;DHT22;6014;47.690;9.130;2023-07-31T12:29:47;26.70;52.20
11908;DHT22;6014;47.690;9.130;2023-07-31T12:32:22;26.20;52.20
11908;DHT22;6014;47.690;9.130;2023-07-31T12:35:06;25.60;53.10
11908;DHT22;6014;47.690;9.130;2023-07-31T12:37:34;25.10;54.50
11908;DHT22;6014;47.690;9.130;2023-07-31T12:40:05;25.10;54.80
11908;DHT22;6014;47.690;9.130;2023-07-31T12:42:35;25.00;55.10
11908;DHT22;6014;47.690;9.130;2023-07-31T12:45:10;25.30;55.30
11908;DHT22;6014;47.690;9.130;2023-07-31T12:47:39;25.80;55.80
11908;DHT22;6014;47.690;9.130;2023-07-31T12:50:07;26.30;54.60
11908;DHT22;6014;47.690;9.130;2023-07-31T12:52:35;26.90;53.50
11908;DHT22;6014;47.690;9.130;2023-07-31T12:55:06;26.60;53.70
11908;DHT22;6014;47.690;9.130;2023-07-31T12:57:34;26.50;55.00
11908;DHT22;6014;47.690;9.130;2023-07-31T13:00:03;26.00;54.60
11908;DHT22;6014;47.690;9.130;2023-07-31T13:02:31;26.00;54.90
11908;DHT22;6014;47.690;9.130;2023-07-31T13:04:59;25.90;56.10
11908;DHT22;6014;47.690;9.130;2023-07-31T13:07:27;25.80;55.30
11908;DHT22;6014;47.690;9.130;2023-07-31T13:09:55;25.60;54.70
11908;DHT22;6014;47.690;9.130;2023-07-31T13:12:25;25.40;55.00
11908;DHT22;6014;47.690;9.130;2023-07-31T13:14:53;25.20;55.70
11908;DHT22;6014;47.690;9.130;2023-07-31T13:17:22;25.20;56.40
11908;DHT22;6014;47.690;9.130;2023-07-31T13:19:50;26.10;56.00
11908;DHT22;6014;47.690;9.130;2023-07-31T13:22:18;26.90;53.90
11908;DHT22;6014;47.690;9.130;2023-07-31T13:24:46;27.20;51.30
11908;DHT22;6014;47.690;9.130;2023-07-31T13:27:15;27.30;51.00
11908;DHT22;6014;47.690;9.130;2023-07-31T13:30:05;27.20;51.90
11908;DHT22;6014;47.690;9.130;2023-07-31T13:32:33;26.60;52.00
11908;DHT22;6014;47.690;9.130;2023-07-31T13:35:05;27.30;51.40
11908;DHT22;6014;47.690;9.130;2023-07-31T13:37:34;28.10;51.10
11908;DHT22;6014;47.690;9.130;2023-07-31T13:40:02;28.30;49.60
11908;DHT22;6014;47.690;9.130;2023-07-31T13:42:32;28.20;49.00
11908;DHT22;6014;47.690;9.130;2023-07-31T13:45:00;28.60;50.50
11908;DHT22;6014;47.690;9.130;2023-07-31T13:47:36;28.60;49.30
11908;DHT22;6014;47.690;9.130;2023-07-31T13:50:05;28.50;48.20
11908;DHT22;6014;47.690;9.130;2023-07-31T13:52:33;28.00;49.60
11908;DHT22;6014;47.690;9.130;2023-07-31T13:55:01;28.00;50.10
11908;DHT22;6014;47.690;9.130;2023-07-31T13:57:29;28.10;49.40
11908;DHT22;6014;47.690;9.130;2023-07-31T13:59:57;28.50;48.50
11908;DHT22;6014;47.690;9.130;2023-07-31T14:02:25;28.60;48.50
11908;DHT22;6014;47.690;9.130;2023-07-31T14:04:55;28.20;47.00
11908;DHT22;6014;47.690;9.130;2023-07-31T14:07:23;27.10;47.70
11908;DHT22;6014;47.690;9.130;2023-07-31T14:09:51;26.60;49.80
11908;DHT22;6014;47.690;9.130;2023-07-31T14:12:19;26.60;48.90
11908;DHT22;6014;47.690;9.130;2023-07-31T14:15:09;27.20;50.50
11908;DHT22;6014;47.690;9.130;2023-07-31T14:17:38;28.20;49.30
11908;DHT22;6014;47.690;9.130;2023-07-31T14:20:10;28.80;48.50
11908;DHT22;6014;47.690;9.130;2023-07-31T14:22:39;28.90;47.60
11908;DHT22;6014;47.690;9.130;2023-07-31T14:25:07;28.20;47.10
11908;DHT22;6014;47.690;9.130;2023-07-31T14:27:37;28.70;46.00
11908;DHT22;6014;47.690;9.130;2023-07-31T14:30:06;29.00;47.10
11908;DHT22;6014;47.690;9.130;2023-07-31T14:32:35;28.80;46.00
11908;DHT22;6014;47.690;9.130;2023-07-31T14:35:04;28.70;45.60
11908;DHT22;6014;47.690;9.130;2023-07-31T14:37:38;28.80;47.00
11908;DHT22;6014;47.690;9.130;2023-07-31T14:40:08;28.70;47.10
11908;DHT22;6014;47.690;9.130;2023-07-31T14:42:37;27.60;48.70
11908;DHT22;6014;47.690;9.130;2023-07-31T14:47:48;27.70;51.10
11908;DHT22;6014;47.690;9.130;2023-07-31T14:50:16;27.60;47.50
11908;DHT22;6014;47.690;9.130;2023-07-31T14:52:48;27.60;49.00
11908;DHT22;6014;47.690;9.130;2023-07-31T14:55:16;27.60;48.10
11908;DHT22;6014;47.690;9.130;2023-07-31T14:57:44;27.60;49.70
11908;DHT22;6014;47.690;9.130;2023-07-31T15:00:13;27.00;48.90
11908;DHT22;6014;47.690;9.130;2023-07-31T15:02:41;26.30;50.20
11908;DHT22;6014;47.690;9.130;2023-07-31T15:05:11;26.30;51.80
11908;DHT22;6014;47.690;9.130;2023-07-31T15:07:39;26.40;52.10
11908;DHT22;6014;47.690;9.130;2023-07-31T15:10:10;26.20;51.00
11908;DHT22;6014;47.690;9.130;2023-07-31T15:12:40;26.00;51.60
11908;DHT22;6014;47.690;9.130;2023-07-31T15:15:15;26.00;51.80
11908;DHT22;6014;47.690;9.130;2023-07-31T15:17:43;25.90;52.40
11908;DHT22;6014;47.690;9.130;2023-07-31T15:20:12;25.90;53.30
11908;DHT22;6014;47.690;9.130;2023-07-31T15:22:42;25.80;53.30
11908;DHT22;6014;47.690;9.130;2023-07-31T15:25:12;25.60;53.70
11908;DHT22;6014;47.690;9.130;2023-07-31T15:27:40;25.50;54.20
11908;DHT22;6014;47.690;9.130;2023-07-31T15:30:09;25.60;54.30
11908;DHT22;6014;47.690;9.130;2023-07-31T15:32:37;25.70;54.30
11908;DHT22;6014;47.690;9.130;2023-07-31T15:35:06;25.90;54.60
11908;DHT22;6014;47.690;9.130;2023-07-31T15:37:39;26.00;54.10
11908;DHT22;6014;47.690;9.130;2023-07-31T15:40:08;26.00;53.20
11908;DHT22;6014;47.690;9.130;2023-07-31T15:42:38;25.90;53.10
11908;DHT22;6014;47.690;9.130;2023-07-31T15:45:09;25.80;54.70
11908;DHT22;6014;47.690;9.130;2023-07-31T15:47:38;26.00;55.00
11908;DHT22;6014;47.690;9.130;2023-07-31T15:50:06;26.10;53.80
11908;DHT22;6014;47.690;9.130;2023-07-31T15:52:44;26.30;53.60
11908;DHT22;6014;47.690;9.130;2023-07-31T15:55:12;26.10;54.10
11908;DHT22;6014;47.690;9.130;2023-07-31T15:57:46;25.80;53.20
11908;DHT22;6014;47.690;9.130;2023-07-31T16:00:14;25.70;54.30
11908;DHT22;6014;47.690;9.130;2023-07-31T16:02:43;25.60;53.70
11908;DHT22;6014;47.690;9.130;2023-07-31T16:05:11;25.70;54.00
11908;DHT22;6014;47.690;9.130;2023-07-31T16:07:39;26.00;54.30
11908;DHT22;6014;47.690;9.130;2023-07-31T16:10:08;26.20;54.10
11908;DHT22;6014;47.690;9.130;2023-07-31T16:12:36;25.90;54.10
11908;DHT22;6014;47.690;9.130;2023-07-31T16:15:07;25.70;54.50
11908;DHT22;6014;47.690;9.130;2023-07-31T16:17:35;25.40;55.10
11908;DHT22;6014;47.690;9.130;2023-07-31T16:20:04;25.30;56.90
11908;DHT22;6014;47.690;9.130;2023-07-31T16:22:33;25.20;56.80
11908;DHT22;6014;47.690;9.130;2023-07-31T16:25:01;25.20;56.30
11908;DHT22;6014;47.690;9.130;2023-07-31T16:27:29;25.10;56.20
11908;DHT22;6014;47.690;9.130;2023-07-31T16:30:03;25.00;57.50
11908;DHT22;6014;47.690;9.130;2023-07-31T16:32:33;24.90;57.10
11908;DHT22;6014;47.690;9.130;2023-07-31T16:35:02;24.90;58.10
11908;DHT22;6014;47.690;9.130;2023-07-31T16:37:30;24.80;58.50
11908;DHT22;6014;47.690;9.130;2023-07-31T16:40:02;24.70;58.40
11908;DHT22;6014;47.690;9.130;2023-07-31T16:42:31;24.70;59.30
11908;DHT22;6014;47.690;9.130;2023-07-31T16:44:59;24.50;58.30
11908;DHT22;6014;47.690;9.130;2023-07-31T16:47:27;24.50;58.90
11908;DHT22;6014;47.690;9.130;2023-07-31T16:50:09;24.70;59.10
11908;DHT22;6014;47.690;9.130;2023-07-31T16:52:37;24.50;59.30